Time;durP1;ratioP1;P1;durP2;ratioP2;P2;SDS_P1;SDS_P2;PMS_P1;PMS_P2;Temp;Humidity;BMP_temperature;BMP_pressure;BME280_temperature;BME280_humidity;BME280_pressure;Samples;Min_cycle;Max_cycle;Signal;HPM_P1;HPM_P2
2023/12/23 00:01:09;;;;;;;7.40;1.10;;;;;;;2.18;81.29;98111.73;105509;1256;69172;-56
2023/12/23 00:03:49;;;;;;;8.90;1.50;;;;;;;2.16;81.45;98121.63;105534;1256;71676;-56
2023/12/23 00:06:18;;;;;;;9.30;0.90;;;;;;;2.11;81.60;98135.27;105507;1256;81546;-57
2023/12/23 00:08:46;;;;;;;2.80;0.60;;;;;;;2.02;81.59;98136.13;105486;1256;71773;-57
2023/12/23 00:11:14;;;;;;;4.10;0.80;;;;;;;1.91;81.69;98143.08;105570;1254;69067;-57
2023/12/23 00:13:43;;;;;;;4.60;0.70;;;;;;;1.83;82.12;98147.73;105509;1253;69193;-56
2023/12/23 00:16:11;;;;;;;4.70;0.70;;;;;;;1.72;82.17;98142.77;105559;1254;72243;-56
2023/12/23 00:18:39;;;;;;;2.60;0.60;;;;;;;1.63;82.43;98143.64;105564;1255;83654;-57
2023/12/23 00:21:08;;;;;;;5.20;0.80;;;;;;;1.55;82.68;98145.80;105471;1256;71902;-57
2023/12/23 00:23:36;;;;;;;3.70;0.70;;;;;;;1.49;82.56;98156.54;105504;1256;69210;-57
2023/12/23 00:26:04;;;;;;;3.00;0.40;;;;;;;1.43;82.94;98163.27;105533;1256;69197;-57
2023/12/23 00:28:33;;;;;;;2.00;0.40;;;;;;;1.37;82.99;98166.59;105491;1256;71793;-57
2023/12/23 00:31:01;;;;;;;1.10;0.30;;;;;;;1.29;82.89;98177.20;105571;1255;81575;-57
2023/12/23 00:33:29;;;;;;;4.10;0.60;;;;;;;1.21;83.27;98177.15;105495;1256;72194;-57
2023/12/23 00:35:57;;;;;;;2.00;0.60;;;;;;;1.13;83.17;98188.43;105541;1256;69112;-56
2023/12/23 00:38:25;;;;;;;0.70;0.20;;;;;;;1.04;83.40;98199.72;105547;1255;69790;-57
2023/12/23 00:40:55;;;;;;;0.80;0.30;;;;;;;0.98;83.62;98194.80;105530;1256;72221;-55
2023/12/23 00:43:23;;;;;;;2.90;0.50;;;;;;;0.90;83.74;98195.40;105489;1256;81339;-56
2023/12/23 00:45:51;;;;;;;2.30;0.60;;;;;;;0.83;84.04;98198.20;105483;1253;71296;-55
2023/12/23 00:48:20;;;;;;;1.40;0.20;;;;;;;0.77;84.08;98211.98;105570;1254;69173;-57
2023/12/23 00:50:49;;;;;;;0.70;0.30;;;;;;;0.73;84.45;98213.99;105578;1256;69141;-57
2023/12/23 00:53:17;;;;;;;1.50;0.60;;;;;;;0.70;84.60;98215.64;105426;1253;72492;-56
2023/12/23 00:55:46;;;;;;;2.10;0.40;;;;;;;0.67;84.86;98223.83;105734;1256;82836;-56
2023/12/23 00:58:14;;;;;;;1.80;0.30;;;;;;;0.66;85.10;98230.38;105603;1253;71759;-58
2023/12/23 01:00:42;;;;;;;3.80;0.40;;;;;;;0.65;85.26;98234.69;105527;1258;69268;-56
2023/12/23 01:03:10;;;;;;;1.70;0.40;;;;;;;0.64;85.51;98243.16;105577;1255;69142;-57
2023/12/23 01:05:39;;;;;;;1.70;0.30;;;;;;;0.63;85.61;98247.83;105529;1256;72005;-57
2023/12/23 01:08:07;;;;;;;1.40;0.50;;;;;;;0.62;85.62;98249.58;105482;1256;82186;-54
2023/12/23 01:10:35;;;;;;;0.60;0.30;;;;;;;0.62;85.73;98242.55;105501;1253;72652;-57
2023/12/23 01:13:04;;;;;;;2.20;0.50;;;;;;;0.61;85.71;98249.27;105586;1254;69054;-57
2023/12/23 01:15:32;;;;;;;2.70;0.80;;;;;;;0.60;86.09;98254.42;105488;1256;69183;-56
2023/12/23 01:18:00;;;;;;;2.20;0.40;;;;;;;0.60;86.11;98262.19;105566;1253;72354;-56
2023/12/23 01:20:29;;;;;;;1.30;0.60;;;;;;;0.59;86.39;98263.94;105522;1256;81751;-56
2023/12/23 01:22:58;;;;;;;4.60;0.50;;;;;;;0.59;86.53;98264.11;105559;1254;72190;-56
2023/12/23 01:25:26;;;;;;;2.40;0.40;;;;;;;0.58;86.48;98269.99;105572;1256;69145;-56
2023/12/23 01:27:54;;;;;;;4.40;0.50;;;;;;;0.57;86.53;98275.52;105564;1257;69202;-57
2023/12/23 01:30:23;;;;;;;2.40;0.60;;;;;;;0.57;86.55;98284.10;105592;1256;72430;-56
2023/12/23 01:32:51;;;;;;;4.30;0.60;;;;;;;0.55;86.63;98287.41;105566;1256;82028;-57
2023/12/23 01:35:19;;;;;;;3.40;0.60;;;;;;;0.55;86.83;98298.77;105582;1256;71816;-57
2023/12/23 01:37:48;;;;;;;2.60;0.70;;;;;;;0.57;87.06;98300.09;105509;1257;69085;-57
2023/12/23 01:40:17;;;;;;;1.50;0.40;;;;;;;0.58;87.23;98297.14;105516;1266;69205;-57
2023/12/23 01:42:45;;;;;;;4.20;0.50;;;;;;;0.59;87.23;98301.40;105543;1257;71958;-56
2023/12/23 01:45:13;;;;;;;2.60;0.70;;;;;;;0.59;87.23;98307.78;105441;1259;81666;-56
2023/12/23 01:47:44;;;;;;;7.60;1.00;;;;;;;0.59;87.13;98307.23;105528;1256;72435;-56
2023/12/23 01:50:12;;;;;;;1.40;0.40;;;;;;;0.60;87.31;98312.89;105522;1266;69125;-56
2023/12/23 01:52:41;;;;;;;3.00;0.40;;;;;;;0.60;87.27;98322.00;105510;1254;69182;-56
2023/12/23 01:55:09;;;;;;;3.70;0.40;;;;;;;0.61;87.36;98328.66;105559;1253;71909;-57
2023/12/23 01:57:37;;;;;;;1.20;0.30;;;;;;;0.61;87.41;98337.61;105555;1256;81551;-56
2023/12/23 02:00:07;;;;;;;3.30;0.70;;;;;;;0.61;87.38;98352.21;105467;1255;72142;-57
2023/12/23 02:02:40;;;;;;;1.40;0.40;;;;;;;0.61;87.60;98353.95;105474;1254;69080;-57
2023/12/23 02:05:09;;;;;;;1.40;0.40;;;;;;;0.62;87.58;98354.77;105492;1258;69218;-57
2023/12/23 02:07:38;;;;;;;0.70;0.40;;;;;;;0.61;87.59;98359.94;105487;1257;72374;-56
2023/12/23 02:10:07;;;;;;;2.40;0.30;;;;;;;0.61;87.63;98366.14;105521;1257;81804;-56
2023/12/23 02:13:31;;;;;;;2.80;0.90;;;;;;;0.61;87.64;98371.79;105573;1255;71934;-57
2023/12/23 02:15:59;;;;;;;1.10;0.50;;;;;;;0.61;87.83;98369.91;104933;1265;69172;-57
2023/12/23 02:18:28;;;;;;;1.20;0.30;;;;;;;0.62;87.88;98379.34;105425;1259;69152;-57
2023/12/23 02:20:56;;;;;;;2.80;0.30;;;;;;;0.63;88.07;98387.73;105549;1252;73164;-57
2023/12/23 02:23:25;;;;;;;2.90;0.50;;;;;;;0.65;88.32;98390.42;105521;1257;81536;-57
2023/12/23 02:25:59;;;;;;;2.00;0.40;;;;;;;0.67;88.49;98396.71;105443;1254;71876;-57
2023/12/23 02:28:28;;;;;;;1.20;0.50;;;;;;;0.69;88.41;98395.30;105573;1256;69208;-57
2023/12/23 02:30:57;;;;;;;4.40;0.60;;;;;;;0.67;88.44;98399.30;105619;1254;69092;-55
2023/12/23 02:33:25;;;;;;;3.10;0.50;;;;;;;0.65;88.36;98404.53;105450;1268;70834;-56
2023/12/23 02:35:54;;;;;;;1.30;0.40;;;;;;;0.64;88.58;98414.17;105542;1258;81610;-56
2023/12/23 02:38:22;;;;;;;5.90;0.60;;;;;;;0.65;88.68;98418.96;105513;1257;71726;-56
2023/12/23 02:40:51;;;;;;;2.60;0.60;;;;;;;0.66;88.74;98420.63;105542;1254;69096;-56
2023/12/23 02:43:19;;;;;;;5.30;1.10;;;;;;;0.67;88.75;98428.52;105524;1256;69203;-56
2023/12/23 02:45:49;;;;;;;4.00;1.10;;;;;;;0.68;89.02;98434.86;105558;1257;72034;-57
2023/12/23 02:48:17;;;;;;;1.40;0.70;;;;;;;0.69;88.92;98441.20;105483;1257;80822;-56
2023/12/23 02:50:45;;;;;;;2.90;0.60;;;;;;;0.70;88.89;98451.99;105508;1253;72713;-56
2023/12/23 02:53:14;;;;;;;3.20;1.00;;;;;;;0.70;89.15;98453.52;105589;1255;69079;-56
2023/12/23 02:55:42;;;;;;;1.80;0.50;;;;;;;0.73;89.13;98465.51;105512;1265;69584;-55
2023/12/23 02:58:10;;;;;;;2.40;0.60;;;;;;;0.75;89.22;98472.14;105570;1256;71678;-56
2023/12/23 03:00:38;;;;;;;6.50;0.80;;;;;;;0.77;89.28;98476.73;105545;1256;81558;-56
2023/12/23 03:03:07;;;;;;;2.50;0.50;;;;;;;0.78;89.14;98479.95;105438;1258;71678;-56
2023/12/23 03:05:35;;;;;;;2.20;0.60;;;;;;;0.79;89.25;98478.38;105542;1254;69421;-56
2023/12/23 03:08:04;;;;;;;1.00;0.40;;;;;;;0.79;89.28;98483.72;105497;1260;69161;-56
2023/12/23 03:10:32;;;;;;;2.10;0.30;;;;;;;0.79;89.27;98483.39;105573;1254;72699;-56
2023/12/23 03:13:01;;;;;;;5.20;0.60;;;;;;;0.78;89.21;98494.39;105535;1257;81407;-56
2023/12/23 03:15:29;;;;;;;2.30;0.50;;;;;;;0.80;89.23;98492.29;105524;1254;71768;-56
2023/12/23 03:17:57;;;;;;;2.50;0.30;;;;;;;0.81;89.10;98498.11;105504;1257;69107;-56
2023/12/23 03:20:26;;;;;;;1.30;0.40;;;;;;;0.82;89.07;98498.58;105512;1255;69189;-56
2023/12/23 03:22:54;;;;;;;2.20;0.40;;;;;;;0.83;88.98;98502.69;105538;1257;71829;-56
2023/12/23 03:25:23;;;;;;;1.50;0.40;;;;;;;0.84;89.01;98506.61;105512;1255;82077;-57
2023/12/23 03:27:51;;;;;;;1.60;0.30;;;;;;;0.85;88.95;98513.30;105476;1258;72127;-56
2023/12/23 03:30:19;;;;;;;3.40;0.70;;;;;;;0.85;88.75;98521.89;105538;1255;69109;-56
2023/12/23 03:32:47;;;;;;;1.10;0.40;;;;;;;0.85;88.69;98527.38;105498;1256;69243;-56
2023/12/23 03:35:16;;;;;;;1.60;0.50;;;;;;;0.86;88.62;98531.66;105548;1255;72164;-56
2023/12/23 03:37:45;;;;;;;0.90;0.30;;;;;;;0.86;88.43;98535.95;105579;1266;82025;-56
2023/12/23 03:40:14;;;;;;;3.00;0.30;;;;;;;0.84;88.36;98544.27;105595;1256;71842;-57
2023/12/23 03:42:42;;;;;;;1.40;0.50;;;;;;;0.82;88.23;98551.20;105488;1252;69150;-56
2023/12/23 03:45:10;;;;;;;1.30;0.40;;;;;;;0.79;87.89;98559.20;105464;1259;69275;-56
2023/12/23 03:47:40;;;;;;;1.90;0.50;;;;;;;0.76;87.92;98564.60;105576;1256;73461;-55
2023/12/23 03:50:10;;;;;;;1.60;0.40;;;;;;;0.74;87.83;98572.22;105603;1254;82110;-57
2023/12/23 03:52:38;;;;;;;1.40;0.60;;;;;;;0.73;87.77;98575.34;105581;1256;71082;-56
2023/12/23 03:55:08;;;;;;;4.20;0.70;;;;;;;0.72;87.63;98580.87;105490;1257;69052;-55
2023/12/23 03:57:37;;;;;;;1.90;0.30;;;;;;;0.71;87.33;98587.25;105558;1254;69022;-57
2023/12/23 04:00:07;;;;;;;2.20;0.30;;;;;;;0.70;87.28;98589.36;105641;1258;72374;-56
2023/12/23 04:02:41;;;;;;;2.30;0.30;;;;;;;0.67;87.26;98598.70;105595;1257;81342;-56
2023/12/23 04:05:10;;;;;;;2.40;0.50;;;;;;;0.66;86.94;98600.80;105525;1257;73504;-57
2023/12/23 04:07:39;;;;;;;3.20;0.60;;;;;;;0.62;86.90;98596.25;105549;1257;69096;-56
2023/12/23 04:10:07;;;;;;;2.70;0.50;;;;;;;0.59;86.68;98601.83;105454;1257;69226;-57
2023/12/23 04:12:36;;;;;;;4.60;0.70;;;;;;;0.56;86.55;98611.02;105615;1254;72578;-57
2023/12/23 04:15:05;;;;;;;1.20;0.50;;;;;;;0.52;86.45;98616.95;105466;1258;81762;-57
2023/12/23 04:17:34;;;;;;;1.20;0.40;;;;;;;0.49;86.44;98622.88;105452;1256;71563;-56
2023/12/23 04:20:03;;;;;;;1.30;0.60;;;;;;;0.46;86.50;98629.83;105461;1257;69205;-56
2023/12/23 04:22:31;;;;;;;1.70;0.50;;;;;;;0.42;86.34;98631.80;105563;1257;69174;-56
2023/12/23 04:24:59;;;;;;;1.40;0.60;;;;;;;0.41;86.30;98636.81;105556;1256;71901;-56
2023/12/23 04:27:27;;;;;;;1.10;0.50;;;;;;;0.40;86.28;98640.64;105462;1258;81248;-57
2023/12/23 04:29:56;;;;;;;1.70;0.30;;;;;;;0.38;86.24;98645.98;105545;1256;71935;-55
2023/12/23 04:32:25;;;;;;;1.90;0.40;;;;;;;0.36;86.16;98645.02;105602;1255;69205;-56
2023/12/23 04:34:55;;;;;;;1.40;0.50;;;;;;;0.34;86.19;98653.48;105566;1255;69115;-56
2023/12/23 04:37:25;;;;;;;1.10;0.20;;;;;;;0.32;86.16;98661.95;105525;1257;71053;-55
2023/12/23 04:39:53;;;;;;;0.60;0.30;;;;;;;0.31;86.12;98669.89;105583;1256;81906;-56
2023/12/23 04:42:22;;;;;;;1.70;0.40;;;;;;;0.31;86.14;98675.88;105543;1255;72285;-56
2023/12/23 04:44:50;;;;;;;1.60;0.30;;;;;;;0.31;86.21;98681.05;105432;1256;69082;-56
2023/12/23 04:47:18;;;;;;;1.10;0.30;;;;;;;0.32;86.21;98681.36;105547;1256;69123;-56
2023/12/23 04:49:46;;;;;;;1.70;0.20;;;;;;;0.32;86.04;98687.73;105535;1257;74347;-56
2023/12/23 04:52:15;;;;;;;2.80;0.30;;;;;;;0.31;86.07;98697.52;105519;1265;82785;-55
2023/12/23 04:54:43;;;;;;;1.70;0.20;;;;;;;0.32;86.02;98703.35;105440;1257;71434;-55
2023/12/23 04:57:12;;;;;;;1.40;0.20;;;;;;;0.33;86.08;98705.02;105524;1256;69157;-57
2023/12/23 04:59:41;;;;;;;1.50;0.50;;;;;;;0.32;85.90;98714.51;105609;1256;69567;-56
2023/12/23 05:02:10;;;;;;;2.90;0.50;;;;;;;0.31;85.94;98722.10;105442;1259;71963;-57
2023/12/23 05:04:38;;;;;;;1.80;0.20;;;;;;;0.30;86.02;98728.83;105415;1253;80279;-56
2023/12/23 05:07:07;;;;;;;1.30;0.30;;;;;;;0.30;86.11;98732.43;105525;1254;71944;-55
2023/12/23 05:09:36;;;;;;;1.00;0.60;;;;;;;0.31;86.06;98742.20;105585;1252;69241;-56
2023/12/23 05:12:05;;;;;;;1.00;0.20;;;;;;;0.33;86.12;98744.04;105623;1257;69121;-56
2023/12/23 05:14:33;;;;;;;1.40;0.30;;;;;;;0.33;86.17;98754.35;105619;1255;72109;-56
2023/12/23 05:17:01;;;;;;;1.40;0.20;;;;;;;0.33;86.19;98756.92;105422;1257;83105;-56
2023/12/23 05:19:29;;;;;;;3.20;0.70;;;;;;;0.32;86.16;98765.55;105426;1257;71490;-55
2023/12/23 05:21:58;;;;;;;2.00;0.50;;;;;;;0.33;86.10;98768.77;105536;1256;69190;-57
2023/12/23 05:24:27;;;;;;;2.80;0.40;;;;;;;0.34;86.08;98766.02;105618;1254;69080;-57
2023/12/23 05:26:55;;;;;;;1.80;0.20;;;;;;;0.36;86.08;98769.58;105649;1257;72386;-58
2023/12/23 05:29:27;;;;;;;1.70;0.30;;;;;;;0.37;86.05;98768.71;105618;1257;81416;-56
2023/12/23 05:31:55;;;;;;;3.40;0.30;;;;;;;0.37;85.88;98771.10;105407;1255;71895;-56
2023/12/23 05:34:23;;;;;;;2.30;0.40;;;;;;;0.38;85.87;98776.40;105525;1256;69111;-56
2023/12/23 05:36:51;;;;;;;0.60;0.20;;;;;;;0.38;85.93;98776.56;105522;1254;69116;-57
2023/12/23 05:39:19;;;;;;;3.60;0.40;;;;;;;0.37;85.79;98790.00;105549;1257;73269;-56
2023/12/23 05:41:47;;;;;;;1.60;0.20;;;;;;;0.37;85.94;98794.64;105586;1256;81793;-57
2023/12/23 05:44:16;;;;;;;1.90;0.30;;;;;;;0.36;85.79;98793.13;105513;1257;71987;-56
2023/12/23 05:46:44;;;;;;;2.40;0.30;;;;;;;0.34;85.70;98799.35;105514;1256;69164;-56
2023/12/23 05:49:12;;;;;;;0.70;0.20;;;;;;;0.31;85.82;98799.91;105532;1254;69151;-57
2023/12/23 05:51:40;;;;;;;1.80;0.30;;;;;;;0.29;85.83;98803.90;105531;1254;72517;-56
2023/12/23 05:54:08;;;;;;;3.20;0.50;;;;;;;0.27;85.80;98805.67;105584;1258;81519;-55
2023/12/23 05:56:37;;;;;;;1.30;0.40;;;;;;;0.26;85.76;98815.67;105525;1253;70323;-56
2023/12/23 05:59:05;;;;;;;2.00;0.40;;;;;;;0.26;85.85;98812.92;105518;1254;69116;-56
2023/12/23 06:01:33;;;;;;;1.90;0.60;;;;;;;0.24;85.62;98815.53;105545;1257;69128;-57
2023/12/23 06:04:01;;;;;;;2.40;0.60;;;;;;;0.23;85.74;98813.83;105554;1254;72269;-56
2023/12/23 06:06:29;;;;;;;4.70;1.20;;;;;;;0.21;85.66;98813.70;105520;1255;81446;-57
2023/12/23 06:08:58;;;;;;;3.00;0.40;;;;;;;0.18;85.67;98815.64;105538;1256;72198;-57
2023/12/23 06:11:26;;;;;;;3.20;0.50;;;;;;;0.16;85.69;98817.91;105510;1254;69214;-56
2023/12/23 06:13:54;;;;;;;1.10;0.20;;;;;;;0.15;85.67;98824.98;105613;1254;69138;-56
2023/12/23 06:16:22;;;;;;;2.00;0.30;;;;;;;0.14;85.70;98827.40;105584;1254;71924;-56
2023/12/23 06:18:51;;;;;;;1.50;0.30;;;;;;;0.14;85.88;98830.33;105544;1255;81557;-56
2023/12/23 06:21:19;;;;;;;0.60;0.30;;;;;;;0.12;85.70;98826.60;105526;1258;71722;-57
2023/12/23 06:23:47;;;;;;;2.20;0.40;;;;;;;0.08;85.70;98816.19;105579;1254;69096;-56
2023/12/23 06:26:15;;;;;;;1.00;0.30;;;;;;;0.07;85.77;98815.52;105530;1254;69177;-55
2023/12/23 06:28:44;;;;;;;1.80;0.50;;;;;;;0.06;85.79;98816.41;105588;1257;72013;-56
2023/12/23 06:31:12;;;;;;;3.90;0.30;;;;;;;0.06;85.92;98827.59;105528;1257;81444;-56
2023/12/23 06:33:40;;;;;;;11.00;1.20;;;;;;;0.03;85.88;98828.48;105571;1252;71960;-56
2023/12/23 06:36:09;;;;;;;1.30;0.30;;;;;;;0.02;85.77;98832.45;105517;1257;69156;-56
2023/12/23 06:38:37;;;;;;;3.50;0.50;;;;;;;0.01;85.88;98833.01;105535;1257;69193;-56
2023/12/23 06:41:05;;;;;;;4.30;0.80;;;;;;;0.01;86.03;98834.55;105544;1254;73407;-55
2023/12/23 06:43:33;;;;;;;2.10;0.40;;;;;;;0.02;86.08;98832.98;105529;1257;81878;-56
2023/12/23 06:46:18;;;;;;;1.80;0.40;;;;;;;0.05;86.11;98837.55;105591;1256;72264;-57
2023/12/23 06:48:47;;;;;;;1.80;0.70;;;;;;;0.06;86.19;98829.30;105568;1256;69071;-56
2023/12/23 06:51:15;;;;;;;3.80;0.50;;;;;;;0.07;86.26;98823.94;105606;1256;69170;-55
2023/12/23 06:53:44;;;;;;;4.50;0.80;;;;;;;0.07;86.15;98824.98;105582;1253;71905;-57
2023/12/23 06:56:13;;;;;;;4.50;0.60;;;;;;;0.09;86.25;98828.02;105618;1256;81437;-56
2023/12/23 06:58:42;;;;;;;4.00;0.50;;;;;;;0.13;86.34;98828.63;105578;1254;71812;-59
2023/12/23 07:01:10;;;;;;;3.20;0.70;;;;;;;0.17;86.37;98828.38;105665;1254;69178;-56
2023/12/23 07:03:41;;;;;;;4.20;1.20;;;;;;;0.19;86.43;98828.00;105616;1255;69186;-57
2023/12/23 07:06:12;;;;;;;3.00;0.50;;;;;;;0.20;86.53;98824.38;105561;1254;71898;-57
2023/12/23 07:08:41;;;;;;;6.90;1.00;;;;;;;0.21;86.52;98823.33;105558;1255;81517;-55
2023/12/23 07:11:10;;;;;;;5.20;0.80;;;;;;;0.23;86.53;98823.97;105549;1256;71703;-55
2023/12/23 07:13:39;;;;;;;4.90;1.30;;;;;;;0.25;86.59;98819.81;105607;1256;69142;-56
2023/12/23 07:16:07;;;;;;;4.30;0.90;;;;;;;0.28;86.56;98816.30;105555;1256;69308;-55
2023/12/23 07:18:35;;;;;;;5.30;1.30;;;;;;;0.32;86.64;98812.46;105597;1254;72022;-55
2023/12/23 07:21:04;;;;;;;5.80;1.30;;;;;;;0.35;86.68;98809.96;105623;1253;82696;-55
2023/12/23 07:23:32;;;;;;;3.30;1.30;;;;;;;0.41;86.85;98813.28;105523;1257;71769;-55
2023/12/23 07:26:01;;;;;;;5.70;1.50;;;;;;;0.47;86.89;98805.44;105527;1253;69084;-55
2023/12/23 07:28:30;;;;;;;5.80;1.00;;;;;;;0.52;86.89;98806.17;105603;1255;69298;-56
2023/12/23 07:31:18;;;;;;;12.90;2.60;;;;;;;0.57;86.78;98800.39;105568;1255;72801;-55
2023/12/23 07:33:46;;;;;;;9.70;1.50;;;;;;;0.62;86.96;98790.48;105636;1256;81729;-56
2023/12/23 07:36:15;;;;;;;4.80;1.20;;;;;;;0.67;86.78;98787.79;105606;1254;72026;-56
2023/12/23 07:38:43;;;;;;;7.10;1.90;;;;;;;0.71;86.82;98780.67;105544;1253;69078;-56
2023/12/23 07:41:11;;;;;;;7.80;1.90;;;;;;;0.75;86.77;98780.05;105563;1253;69186;-55
2023/12/23 07:43:39;;;;;;;8.00;1.60;;;;;;;0.78;86.70;98773.11;105549;1253;71840;-55
2023/12/23 07:46:08;;;;;;;6.60;1.30;;;;;;;0.81;86.69;98778.71;105560;1256;81164;-55
2023/12/23 07:48:37;;;;;;;6.20;1.10;;;;;;;0.85;86.58;98766.91;105589;1253;71677;-56
2023/12/23 07:51:09;;;;;;;4.80;1.40;;;;;;;0.88;86.59;98765.13;105590;1253;69831;-56
2023/12/23 07:53:37;;;;;;;7.70;1.10;;;;;;;0.90;86.46;98764.55;105593;1256;69188;-56
2023/12/23 07:56:05;;;;;;;6.60;1.30;;;;;;;0.94;86.52;98763.27;105599;1254;71815;-56
2023/12/23 07:58:34;;;;;;;8.80;1.80;;;;;;;0.98;86.50;98763.86;105636;1256;81805;-56
2023/12/23 08:01:02;;;;;;;5.30;1.40;;;;;;;1.04;86.48;98763.70;105527;1253;72076;-55
2023/12/23 08:03:31;;;;;;;5.70;0.90;;;;;;;1.08;86.43;98760.34;105632;1252;69200;-56
2023/12/23 08:05:59;;;;;;;8.60;1.10;;;;;;;1.11;86.26;98758.71;105554;1256;69190;-56
2023/12/23 08:08:28;;;;;;;7.10;1.00;;;;;;;1.14;86.06;98758.80;105544;1253;72643;-55
2023/12/23 08:10:57;;;;;;;6.60;1.80;;;;;;;1.16;86.07;98760.48;105620;1256;81090;-55
2023/12/23 08:13:28;;;;;;;8.50;1.20;;;;;;;1.18;86.12;98756.83;105608;1253;71333;-56
2023/12/23 08:15:56;;;;;;;6.70;1.30;;;;;;;1.19;85.90;98755.24;105621;1256;69113;-56
2023/12/23 08:18:24;;;;;;;5.90;1.70;;;;;;;1.20;86.04;98754.53;105616;1255;69176;-56
2023/12/23 08:20:52;;;;;;;5.60;1.50;;;;;;;1.22;86.17;98751.89;105570;1256;72324;-57
2023/12/23 08:23:21;;;;;;;6.60;1.40;;;;;;;1.25;86.18;98750.62;105586;1253;82943;-56
2023/12/23 08:25:49;;;;;;;6.00;1.30;;;;;;;1.28;85.94;98751.22;105614;1253;73188;-56
2023/12/23 08:28:17;;;;;;;7.80;1.60;;;;;;;1.30;86.08;98741.88;105659;1253;69059;-59
2023/12/23 08:30:45;;;;;;;5.00;1.00;;;;;;;1.31;85.94;98748.39;105608;1255;69158;-56
2023/12/23 08:33:14;;;;;;;5.30;1.30;;;;;;;1.33;85.86;98746.44;105626;1255;72704;-58
2023/12/23 08:35:43;;;;;;;8.80;1.30;;;;;;;1.36;85.97;98738.29;105581;1253;82564;-57
2023/12/23 08:38:11;;;;;;;7.80;2.20;;;;;;;1.36;85.86;98741.20;105566;1255;71727;-56
2023/12/23 08:40:40;;;;;;;7.50;1.70;;;;;;;1.38;86.02;98744.42;105620;1255;69082;-55
2023/12/23 08:43:09;;;;;;;8.90;1.80;;;;;;;1.41;85.94;98745.39;105558;1255;69586;-56
2023/12/23 08:45:38;;;;;;;8.70;1.70;;;;;;;1.44;86.03;98747.02;105639;1253;70602;-54
2023/12/23 08:48:07;;;;;;;6.60;1.80;;;;;;;1.47;86.21;98751.77;105556;1254;80686;-55
2023/12/23 08:50:35;;;;;;;9.30;1.60;;;;;;;1.50;86.27;98746.53;105573;1254;71787;-57
2023/12/23 08:53:03;;;;;;;11.60;1.80;;;;;;;1.52;86.04;98736.13;105531;1255;69092;-56
2023/12/23 08:55:31;;;;;;;6.70;1.90;;;;;;;1.55;86.36;98744.83;105589;1256;69209;-56
2023/12/23 08:58:00;;;;;;;6.50;1.80;;;;;;;1.58;86.21;98737.00;105610;1256;73667;-56
2023/12/23 09:00:28;;;;;;;8.10;1.70;;;;;;;1.62;86.17;98741.90;105599;1256;81675;-55
2023/12/23 09:02:56;;;;;;;7.30;2.10;;;;;;;1.65;86.13;98740.59;105532;1252;70742;-56
2023/12/23 09:05:25;;;;;;;8.50;2.00;;;;;;;1.69;86.14;98744.45;105587;1253;69091;-56
2023/12/23 09:07:53;;;;;;;11.30;1.90;;;;;;;1.73;85.98;98741.77;105646;1256;69269;-56
2023/12/23 09:10:22;;;;;;;8.10;2.00;;;;;;;1.75;85.97;98737.56;105617;1256;71067;-57
2023/12/23 09:12:50;;;;;;;7.00;1.40;;;;;;;1.77;86.20;98732.70;105534;1253;80559;-57
2023/12/23 09:15:18;;;;;;;7.00;1.40;;;;;;;1.78;86.20;98732.50;105560;1253;71318;-56
2023/12/23 09:17:47;;;;;;;6.40;1.40;;;;;;;1.77;86.25;98733.04;105524;1254;69170;-56
2023/12/23 09:20:15;;;;;;;8.60;1.80;;;;;;;1.78;86.08;98739.71;105543;1256;69173;-56
2023/12/23 09:22:43;;;;;;;5.60;1.30;;;;;;;1.80;86.22;98739.84;105623;1253;73038;-56
2023/12/23 09:25:14;;;;;;;7.20;1.40;;;;;;;1.82;86.22;98736.00;105523;1254;81147;-56
2023/12/23 09:27:42;;;;;;;6.20;1.40;;;;;;;1.84;86.26;98732.34;105534;1256;72056;-57
2023/12/23 09:30:11;;;;;;;7.00;1.70;;;;;;;1.85;86.36;98732.80;105526;1256;69142;-56
2023/12/23 09:32:39;;;;;;;12.90;2.30;;;;;;;1.87;86.44;98729.13;105639;1253;69110;-56
2023/12/23 09:35:08;;;;;;;9.90;1.90;;;;;;;1.89;86.49;98728.91;105560;1253;72026;-56
2023/12/23 09:37:36;;;;;;;8.80;1.80;;;;;;;1.92;86.75;98732.12;105617;1255;81533;-56
2023/12/23 09:40:05;;;;;;;9.40;2.80;;;;;;;1.94;86.71;98727.37;105583;1254;72388;-56
2023/12/23 09:42:34;;;;;;;7.70;2.20;;;;;;;1.97;86.88;98725.05;105629;1256;69116;-56
2023/12/23 09:45:03;;;;;;;9.40;2.00;;;;;;;2.00;86.78;98741.52;105600;1253;70624;-56
2023/12/23 09:47:31;;;;;;;13.20;3.00;;;;;;;2.03;86.77;98736.80;105625;1253;72539;-56
2023/12/23 09:50:00;;;;;;;10.90;2.60;;;;;;;2.06;87.07;98735.50;105556;1254;81921;-56
2023/12/23 09:52:29;;;;;;;12.10;3.70;;;;;;;2.07;87.07;98725.28;105574;1257;71591;-56
2023/12/23 09:54:57;;;;;;;8.90;2.50;;;;;;;2.09;87.32;98724.39;105618;1254;69064;-56
2023/12/23 09:57:26;;;;;;;9.20;1.70;;;;;;;2.08;87.21;98717.68;105679;1254;69119;-57
2023/12/23 09:59:55;;;;;;;9.20;2.40;;;;;;;2.09;87.35;98713.88;105487;1257;70828;-57
2023/12/23 10:02:24;;;;;;;10.90;1.90;;;;;;;2.08;87.66;98717.16;105481;1254;83468;-57
2023/12/23 10:04:52;;;;;;;7.90;2.00;;;;;;;2.06;87.71;98721.02;105520;1252;71805;-57
2023/12/23 10:07:21;;;;;;;8.20;1.60;;;;;;;2.01;87.86;98711.00;105388;1253;69122;-57
2023/12/23 10:09:49;;;;;;;8.90;1.50;;;;;;;1.92;88.01;98705.75;105617;1253;69189;-59
2023/12/23 10:12:20;;;;;;;9.40;2.60;;;;;;;1.86;88.39;98707.11;105630;1253;72058;-58
2023/12/23 10:14:49;;;;;;;5.90;1.30;;;;;;;1.82;88.59;98708.11;105565;1252;81711;-58
2023/12/23 10:17:17;;;;;;;5.90;1.50;;;;;;;1.79;89.07;98715.04;105585;1254;71975;-58
2023/12/23 10:19:48;;;;;;;6.30;1.60;;;;;;;1.79;89.42;98713.88;105488;1254;69176;-58
2023/12/23 10:22:17;;;;;;;7.30;2.50;;;;;;;1.77;89.62;98713.06;105566;1252;69192;-58
2023/12/23 10:24:46;;;;;;;14.40;3.30;;;;;;;1.73;89.72;98706.45;105665;1253;71075;-58
2023/12/23 10:27:16;;;;;;;7.10;1.40;;;;;;;1.71;89.88;98703.09;105602;1253;81781;-58
2023/12/23 10:29:48;;;;;;;8.60;2.10;;;;;;;1.68;90.04;98697.98;105586;1253;71610;-58
2023/12/23 10:32:21;;;;;;;8.00;2.70;;;;;;;1.66;90.33;98698.23;105552;1253;69094;-58
2023/12/23 10:34:50;;;;;;;8.20;2.20;;;;;;;1.63;90.49;98692.98;105567;1255;69410;-58
2023/12/23 10:37:19;;;;;;;9.00;1.80;;;;;;;1.61;90.60;98701.46;105586;1252;72244;-57
2023/12/23 10:39:55;;;;;;;5.60;1.50;;;;;;;1.59;90.64;98697.58;105646;1253;81163;-58
2023/12/23 10:42:24;;;;;;;8.80;2.30;;;;;;;1.57;91.15;98700.20;105415;1256;174238;-58
2023/12/23 10:44:53;;;;;;;10.20;2.60;;;;;;;1.56;91.11;98700.22;105481;1253;69129;-59
2023/12/23 10:47:21;;;;;;;6.80;2.00;;;;;;;1.54;91.35;98687.70;105500;1253;69301;-58
2023/12/23 10:49:50;;;;;;;9.20;2.10;;;;;;;1.54;91.36;98689.95;105507;1257;72522;-56
2023/12/23 10:52:19;;;;;;;6.10;1.90;;;;;;;1.53;91.42;98689.63;105489;1254;81489;-57
2023/12/23 10:54:48;;;;;;;5.80;1.50;;;;;;;1.53;91.63;98687.23;105525;1253;71646;-57
2023/12/23 10:57:16;;;;;;;6.20;2.00;;;;;;;1.53;91.80;98692.56;105618;1256;69164;-57
2023/12/23 10:59:45;;;;;;;4.00;1.70;;;;;;;1.53;91.90;98687.92;105648;1253;69193;-57
2023/12/23 11:02:14;;;;;;;5.80;1.80;;;;;;;1.52;91.71;98687.77;105557;1253;72106;-56
2023/12/23 11:04:45;;;;;;;7.40;1.70;;;;;;;1.51;91.83;98682.98;105630;1254;81437;-57
2023/12/23 11:07:17;;;;;;;6.60;2.30;;;;;;;1.50;91.85;98680.94;105556;1252;70663;-57
2023/12/23 11:09:46;;;;;;;7.70;2.10;;;;;;;1.49;91.87;98689.06;105548;1256;69235;-57
2023/12/23 11:12:15;;;;;;;5.10;1.40;;;;;;;1.46;91.81;98693.25;105431;1257;69155;-55
2023/12/23 11:14:44;;;;;;;8.70;1.90;;;;;;;1.45;91.91;98698.82;105630;1256;70950;-57
2023/12/23 11:17:29;;;;;;;5.00;1.60;;;;;;;1.43;92.09;98693.36;105584;1255;81700;-56
2023/12/23 11:19:58;;;;;;;9.50;2.50;;;;;;;1.42;92.26;98690.81;105661;1255;70405;-57
2023/12/23 11:22:38;;;;;;;8.70;2.50;;;;;;;1.37;92.12;98688.35;105586;1253;69234;-57
2023/12/23 11:25:35;;;;;;;7.60;2.10;;;;;;;1.31;92.16;98696.25;105649;1256;69295;-57
2023/12/23 11:28:10;;;;;;;4.60;1.60;;;;;;;1.24;92.17;98691.46;105604;1253;72174;-58
2023/12/23 11:30:45;;;;;;;9.80;3.10;;;;;;;1.17;92.40;98695.77;105661;1256;81530;-58
2023/12/23 11:33:14;;;;;;;15.80;4.40;;;;;;;1.11;92.72;98701.43;105604;1255;71990;-58
2023/12/23 11:35:52;;;;;;;5.10;1.80;;;;;;;1.04;92.66;98705.38;105612;1256;69109;-58
2023/12/23 11:38:26;;;;;;;11.70;3.70;;;;;;;0.96;92.82;98699.90;105600;1251;69292;-59
2023/12/23 11:40:55;;;;;;;11.20;3.00;;;;;;;0.90;93.28;98692.84;105622;1255;73354;-59
2023/12/23 11:43:23;;;;;;;11.90;3.90;;;;;;;0.85;93.31;98696.41;105639;1256;80060;-59